Time;durP1;ratioP1;P1;durP2;ratioP2;P2;SDS_P1;SDS_P2;PMS_P1;PMS_P2;Temp;Humidity;BMP_temperature;BMP_pressure;BME280_temperature;BME280_humidity;BME280_pressure;Samples;Min_cycle;Max_cycle;Signal;HPM_P1;HPM_P2
2021/07/03 00:00:51;;;;;;;;;10.25;10.25;;;;;26.66;46.87;101201.78;5076002;27;45322;-75
2021/07/03 00:03:17;;;;;;;;;11.50;11.50;;;;;26.95;47.04;101245.97;5078739;28;45336;-75
2021/07/03 00:05:42;;;;;;;;;10.25;10.25;;;;;26.65;46.99;101202.81;5078152;27;45382;-74
2021/07/03 00:08:07;;;;;;;;;11.75;11.25;;;;;26.73;46.62;101210.59;5068597;28;45383;-73
2021/07/03 00:10:33;;;;;;;;;12.25;11.00;;;;;26.83;47.07;101224.38;5057955;28;45395;-73
2021/07/03 00:12:58;;;;;;;;;10.50;9.25;;;;;26.96;47.09;101241.41;5077625;28;45388;-72
2021/07/03 00:15:24;;;;;;;;;8.00;8.00;;;;;26.89;46.97;101227.25;5078506;28;45440;-73
2021/07/03 00:17:54;;;;;;;;;11.00;11.00;;;;;27.01;46.76;101241.63;5079416;28;46319;-73
2021/07/03 00:20:21;;;;;;;;;11.00;10.00;;;;;26.94;46.71;101233.63;5079483;28;45251;-71
2021/07/03 00:22:47;;;;;;;;;11.25;11.00;;;;;26.96;46.82;101233.41;5079694;28;45458;-72
2021/07/03 00:25:13;;;;;;;;;9.50;9.50;;;;;26.98;46.86;101243.91;5078195;28;45325;-72
2021/07/03 00:27:39;;;;;;;;;9.75;9.50;;;;;27.02;47.00;101247.81;5079116;28;45461;-71
2021/07/03 00:30:07;;;;;;;;;10.75;10.75;;;;;27.02;47.33;101243.28;5097814;27;45416;-72
2021/07/03 00:32:32;;;;;;;;;9.00;9.00;;;;;26.93;46.81;101231.19;5098939;27;45239;-71
2021/07/03 00:34:58;;;;;;;;;9.75;9.75;;;;;27.03;47.39;101236.09;5082833;28;45275;-72
2021/07/03 00:37:23;;;;;;;;;10.75;10.75;;;;;26.75;47.33;101189.91;5074523;28;45797;-71
2021/07/03 00:39:49;;;;;;;;;9.75;9.75;;;;;27.01;47.31;101233.63;5062530;28;45185;-72
2021/07/03 00:42:14;;;;;;;;;10.25;10.25;;;;;26.66;47.25;101175.91;5062908;28;45344;-72
2021/07/03 00:44:40;;;;;;;;;9.50;8.75;;;;;26.91;47.52;101214.50;5062239;28;45234;-71
2021/07/03 00:47:06;;;;;;;;;10.00;10.00;;;;;26.72;47.71;101185.78;5061175;28;47495;-71
2021/07/03 00:49:35;;;;;;;;;10.50;10.25;;;;;27.01;47.56;101222.94;5062272;28;45333;-74
2021/07/03 00:52:00;;;;;;;;;9.75;8.50;;;;;27.01;47.32;101214.13;5062619;28;45245;-74
2021/07/03 00:54:30;;;;;;;;;11.50;11.50;;;;;26.96;47.47;101212.06;5061965;28;45333;-75
2021/07/03 00:57:02;;;;;;;;;10.00;10.00;;;;;26.97;47.24;101213.72;5063304;28;45524;-74
2021/07/03 00:59:31;;;;;;;;;11.50;11.25;;;;;27.03;47.51;101220.91;5064610;27;45323;-74
2021/07/03 01:01:57;;;;;;;;;11.50;11.00;;;;;26.94;47.13;101208.78;5062315;28;45303;-74
2021/07/03 01:04:22;;;;;;;;;9.25;9.25;;;;;27.04;47.86;101219.03;5061763;28;45503;-73
2021/07/03 01:06:48;;;;;;;;;11.00;11.00;;;;;26.95;47.43;101205.91;5062068;28;46198;-74
2021/07/03 01:09:13;;;;;;;;;9.75;9.75;;;;;26.90;47.69;101194.19;5061837;28;45421;-74
2021/07/03 01:11:38;;;;;;;;;11.00;9.25;;;;;26.98;47.78;101210.03;5068538;28;45501;-71
2021/07/03 01:14:04;;;;;;;;;8.00;8.00;;;;;26.63;47.61;101157.63;5081942;28;45351;-72
2021/07/03 01:16:29;;;;;;;;;11.50;11.50;;;;;26.99;47.79;101217.00;5082233;28;45380;-72
2021/07/03 01:18:55;;;;;;;;;8.25;8.00;;;;;26.87;47.96;101200.78;5080861;28;45268;-72
2021/07/03 01:21:21;;;;;;;;;10.75;10.75;;;;;26.80;47.54;101181.28;5082009;28;45272;-73
2021/07/03 01:23:47;;;;;;;;;9.75;9.75;;;;;26.95;47.99;101207.75;5080428;28;45371;-74
2021/07/03 01:26:12;;;;;;;;;9.75;9.75;;;;;26.97;47.76;101208.38;5081844;28;45441;-71
2021/07/03 01:28:38;;;;;;;;;12.25;10.25;;;;;26.90;47.41;101194.19;5081854;28;45237;-71
2021/07/03 01:31:03;;;;;;;;;9.00;8.75;;;;;26.94;47.88;101200.75;5082235;28;45287;-71
2021/07/03 01:33:29;;;;;;;;;9.50;9.00;;;;;26.87;47.42;101184.75;5081810;28;45410;-70
2021/07/03 01:35:54;;;;;;;;;5.00;5.00;;;;;26.97;47.84;101200.34;5082020;28;45379;-71
2021/07/03 01:38:22;;;;;;;;;10.00;10.00;;;;;26.80;47.47;101182.09;5064418;28;45178;-71
2021/07/03 01:40:48;;;;;;;;;10.00;10.00;;;;;27.08;47.41;101222.97;5061117;28;45359;-70
2021/07/03 01:43:25;;;;;;;;;7.25;7.25;;;;;27.01;47.67;101216.81;5061326;28;45331;-79
2021/07/03 01:45:52;;;;;;;;;8.25;8.25;;;;;27.11;47.41;101229.75;5061129;28;46488;-78
2021/07/03 01:48:24;;;;;;;;;10.25;9.00;;;;;26.90;47.67;101199.53;5062898;28;45173;-78
2021/07/03 01:50:50;;;;;;;;;10.25;9.25;;;;;26.88;47.77;101194.38;5080564;28;45315;-78
2021/07/03 01:53:15;;;;;;;;;9.25;9.00;;;;;26.80;47.80;101187.44;5081324;28;45299;-78
2021/07/03 01:55:41;;;;;;;;;9.00;8.25;;;;;26.77;48.00;101190.50;5079925;28;47661;-78
2021/07/03 01:58:06;;;;;;;;;11.00;10.25;;;;;27.12;47.87;101247.38;5074487;28;45286;-78
2021/07/03 02:00:32;;;;;;;;;9.50;9.50;;;;;26.74;47.96;101191.75;5059963;28;45482;-71
2021/07/03 02:02:57;;;;;;;;;10.25;9.25;;;;;26.94;47.90;101219.44;5061102;28;45282;-73
2021/07/03 02:05:23;;;;;;;;;9.25;9.25;;;;;27.13;47.81;101251.75;5061153;28;46262;-73
2021/07/03 02:07:48;;;;;;;;;11.00;10.00;;;;;26.94;47.43;101224.78;5060983;28;45240;-73
2021/07/03 02:10:14;;;;;;;;;8.75;8.75;;;;;26.99;47.41;101230.34;5061442;28;45288;-73
2021/07/03 02:12:41;;;;;;;;;8.50;8.50;;;;;26.94;47.95;101222.94;5079816;28;45584;-72
2021/07/03 02:15:07;;;;;;;;;11.00;11.00;;;;;27.09;47.43;101245.94;5081193;28;46552;-73
2021/07/03 02:17:32;;;;;;;;;8.50;8.50;;;;;26.98;48.16;101220.69;5081062;28;45503;-73
2021/07/03 02:19:58;;;;;;;;;9.00;9.00;;;;;26.99;48.07;101217.00;5097253;27;45373;-73
2021/07/03 02:22:23;;;;;;;;;9.50;9.50;;;;;26.92;47.68;101208.16;5080883;28;46310;-72
2021/07/03 02:24:48;;;;;;;;;10.25;9.75;;;;;26.78;47.90;101175.31;5081375;28;45397;-73
2021/07/03 02:27:14;;;;;;;;;12.50;9.75;;;;;27.10;47.83;101238.75;5080801;28;45334;-75
2021/07/03 02:29:39;;;;;;;;;10.25;10.25;;;;;26.88;47.76;101191.72;5081364;28;45382;-76
2021/07/03 02:32:05;;;;;;;;;8.00;8.00;;;;;26.81;47.95;101183.72;5081040;28;45350;-75
2021/07/03 02:34:30;;;;;;;;;9.75;9.75;;;;;27.11;47.86;101216.38;5079830;28;48373;-73
2021/07/03 02:36:57;;;;;;;;;6.75;6.75;;;;;27.04;47.96;101205.69;5076117;28;45862;-79
2021/07/03 02:39:23;;;;;;;;;8.25;8.25;;;;;27.02;47.94;101200.56;5059649;28;45367;-78
2021/07/03 02:41:48;;;;;;;;;9.00;8.00;;;;;26.85;47.63;101168.13;5059457;28;45550;-83
2021/07/03 02:44:13;;;;;;;;;8.75;8.75;;;;;27.05;48.01;101204.66;5058918;28;46819;-83
2021/07/03 02:46:39;;;;;;;;;8.25;8.25;;;;;26.92;47.74;101174.28;5059314;28;45165;-76
2021/07/03 02:49:04;;;;;;;;;9.25;8.25;;;;;26.85;47.27;101157.44;5060891;28;45282;-72
2021/07/03 02:51:29;;;;;;;;;9.00;9.00;;;;;27.05;47.78;101184.13;5059230;28;45551;-72
2021/07/03 02:53:55;;;;;;;;;9.50;9.50;;;;;27.00;47.45;101183.94;5061823;28;46879;-72
2021/07/03 02:56:20;;;;;;;;;8.50;8.50;;;;;26.85;47.41;101160.91;5060401;28;45351;-72
2021/07/03 02:58:46;;;;;;;;;8.75;8.75;;;;;26.83;47.82;101156.81;5063509;28;45409;-73
2021/07/03 03:01:11;;;;;;;;;9.50;9.00;;;;;26.92;48.16;101173.44;5059825;28;45447;-73
2021/07/03 03:03:37;;;;;;;;;8.50;8.50;;;;;26.88;47.63;101169.56;5060229;28;46319;-73
2021/07/03 03:06:02;;;;;;;;;10.25;9.00;;;;;27.03;47.88;101206.72;5058878;28;45277;-73
2021/07/03 03:08:28;;;;;;;;;7.75;7.75;;;;;27.09;47.86;101218.44;5059082;28;45363;-73
2021/07/03 03:10:53;;;;;;;;;8.50;8.50;;;;;27.07;48.24;101218.63;5064406;28;45375;-73
2021/07/03 03:13:19;;;;;;;;;9.50;8.50;;;;;27.05;48.31;101212.69;5076291;28;45480;-73
2021/07/03 03:15:45;;;;;;;;;9.00;9.00;;;;;26.92;48.16;101200.97;5059870;28;45343;-75
2021/07/03 03:18:10;;;;;;;;;8.25;8.25;;;;;27.00;48.32;101207.97;5060492;28;45294;-75
2021/07/03 03:20:36;;;;;;;;;9.00;8.00;;;;;27.10;47.90;101222.75;5060109;28;45556;-75
2021/07/03 03:23:01;;;;;;;;;7.50;6.25;;;;;27.00;48.25;101215.97;5058778;28;46898;-73
2021/07/03 03:25:27;;;;;;;;;9.50;9.50;;;;;27.04;47.75;101216.38;5059961;28;45232;-73
2021/07/03 03:27:52;;;;;;;;;13.25;10.50;;;;;26.84;48.39;101179.81;5058867;28;45579;-73
2021/07/03 03:30:18;;;;;;;;;7.00;7.00;;;;;27.05;47.81;101212.69;5059744;28;45256;-73
2021/07/03 03:32:43;;;;;;;;;8.50;8.50;;;;;26.89;48.25;101181.88;5059546;28;46225;-73
2021/07/03 03:35:09;;;;;;;;;9.00;9.00;;;;;26.84;47.84;101174.47;5075485;28;45256;-73
2021/07/03 03:37:35;;;;;;;;;7.75;7.00;;;;;26.91;47.83;101190.50;5062231;28;45236;-76
2021/07/03 03:40:00;;;;;;;;;10.00;8.50;;;;;26.91;48.25;101196.66;5059760;28;45410;-75
2021/07/03 03:42:26;;;;;;;;;8.00;8.00;;;;;26.63;48.23;101153.13;5058608;28;48090;-75
2021/07/03 03:44:51;;;;;;;;;7.00;7.00;;;;;26.80;48.53;101179.44;5057918;28;45371;-76
2021/07/03 03:47:17;;;;;;;;;10.50;9.50;;;;;26.67;47.86;101161.56;5058570;28;45457;-76
2021/07/03 03:49:42;;;;;;;;;8.50;7.75;;;;;27.02;48.22;101219.25;5059421;28;45458;-76
2021/07/03 03:52:09;;;;;;;;;8.25;8.25;;;;;27.02;48.55;101221.09;5075419;28;47984;-75
2021/07/03 03:54:35;;;;;;;;;8.75;7.00;;;;;26.93;47.98;101210.63;5059507;28;45327;-75
2021/07/03 03:59:44;;;;;;;;;9.00;8.00;;;;;26.82;48.41;101196.06;5060016;28;45375;-76
2021/07/03 04:02:10;;;;;;;;;11.00;9.50;;;;;26.96;48.18;101217.41;5059635;28;45378;-76
2021/07/03 04:04:35;;;;;;;;;9.00;9.00;;;;;26.97;48.05;101205.69;5060116;28;46035;-76
2021/07/03 04:07:00;;;;;;;;;8.75;8.75;;;;;26.74;48.14;101178.41;5061941;28;45618;-75
2021/07/03 04:09:26;;;;;;;;;11.25;9.25;;;;;26.91;48.34;101212.66;5062811;28;45280;-76
2021/07/03 04:11:52;;;;;;;;;7.25;7.25;;;;;26.81;48.52;101199.75;5078702;28;47841;-76
2021/07/03 04:14:17;;;;;;;;;8.25;8.25;;;;;26.73;48.21;101186.59;5061097;28;45312;-76
2021/07/03 04:16:42;;;;;;;;;9.00;9.00;;;;;26.92;48.25;101213.50;5061562;28;45341;-75
2021/07/03 04:19:08;;;;;;;;;10.00;10.00;;;;;26.85;48.59;101214.31;5061532;28;45478;-75
2021/07/03 04:21:33;;;;;;;;;8.00;8.00;;;;;26.78;48.48;101194.00;5063207;28;45406;-75
2021/07/03 04:23:58;;;;;;;;;9.00;9.00;;;;;26.91;48.12;101219.84;5062207;28;45171;-76
2021/07/03 04:26:24;;;;;;;;;7.50;7.50;;;;;26.81;48.60;101205.06;5061672;28;45249;-75
2021/07/03 04:28:49;;;;;;;;;9.00;9.00;;;;;26.86;48.79;101209.78;5062070;28;45240;-75
2021/07/03 04:31:15;;;;;;;;;7.75;7.25;;;;;26.83;48.32;101211.03;5062919;28;45410;-75
2021/07/03 04:33:40;;;;;;;;;7.00;5.00;;;;;26.92;48.33;101225.00;5062848;28;45424;-74
2021/07/03 04:36:05;;;;;;;;;7.50;7.50;;;;;26.67;48.69;101179.41;5061499;28;45336;-75
2021/07/03 04:38:31;;;;;;;;;11.00;10.00;;;;;26.77;48.54;101195.84;5062743;28;45630;-76
2021/07/03 04:40:56;;;;;;;;;7.50;7.00;;;;;26.88;48.57;101212.28;5062371;28;45412;-75
2021/07/03 04:43:21;;;;;;;;;8.25;7.75;;;;;26.87;48.19;101207.97;5062443;28;45322;-75
2021/07/03 04:45:47;;;;;;;;;7.00;7.00;;;;;26.89;48.65;101220.06;5061345;28;45407;-75
2021/07/03 04:48:13;;;;;;;;;9.00;9.00;;;;;26.88;48.69;101218.41;5061087;28;45340;-75
2021/07/03 04:50:38;;;;;;;;;10.25;10.25;;;;;26.87;48.82;101210.63;5062604;28;45685;-75
2021/07/03 04:53:05;;;;;;;;;9.75;8.50;;;;;26.89;48.33;101208.56;5077956;28;45540;-75
2021/07/03 04:55:30;;;;;;;;;7.75;7.75;;;;;26.66;48.28;101178.59;5062206;28;45358;-75
2021/07/03 04:57:57;;;;;;;;;7.00;7.00;;;;;26.76;48.44;101196.84;5067991;28;45174;-73
2021/07/03 05:00:22;;;;;;;;;8.00;8.00;;;;;26.74;48.68;101197.06;5077341;27;46417;-74
2021/07/03 05:02:48;;;;;;;;;8.00;7.50;;;;;26.95;48.68;101224.59;5062204;28;45281;-74
2021/07/03 05:05:13;;;;;;;;;7.50;7.00;;;;;26.85;48.41;101208.97;5062565;28;45753;-73
2021/07/03 05:07:41;;;;;;;;;9.75;8.50;;;;;26.75;48.68;101197.91;5070696;28;45405;-73
2021/07/03 05:10:07;;;;;;;;;7.50;7.50;;;;;26.84;48.74;101215.34;5082453;27;45368;-73
2021/07/03 05:12:32;;;;;;;;;8.75;8.75;;;;;26.94;48.92;101232.81;5082287;28;45266;-73
2021/07/03 05:14:58;;;;;;;;;9.50;9.00;;;;;26.77;48.80;101200.34;5081098;28;45330;-73
2021/07/03 05:17:23;;;;;;;;;8.00;8.00;;;;;26.75;48.65;101205.91;5082290;28;45418;-74
2021/07/03 05:19:48;;;;;;;;;8.25;8.25;;;;;26.92;48.58;101238.34;5082275;28;45457;-74
2021/07/03 05:22:14;;;;;;;;;10.50;9.25;;;;;26.93;48.56;101245.31;5082205;28;45406;-75
2021/07/03 05:24:39;;;;;;;;;6.75;6.50;;;;;26.85;48.43;101233.00;5080875;28;45445;-75
2021/07/03 05:27:05;;;;;;;;;7.75;7.50;;;;;26.94;48.51;101246.16;5077877;28;45512;-75
2021/07/03 05:29:30;;;;;;;;;8.50;8.50;;;;;26.74;48.38;101213.09;5061687;28;45422;-77
2021/07/03 05:31:56;;;;;;;;;8.25;8.00;;;;;26.78;48.86;101223.38;5077410;28;45267;-76
2021/07/03 05:34:21;;;;;;;;;8.25;7.75;;;;;26.72;48.38;101215.16;5060673;28;45804;-73
2021/07/03 05:36:48;;;;;;;;;8.00;8.00;;;;;26.71;48.54;101218.00;5062513;28;45458;-73
2021/07/03 05:39:14;;;;;;;;;8.25;8.25;;;;;26.97;48.49;101259.09;5061916;28;46053;-74
2021/07/03 05:41:39;;;;;;;;;8.50;8.00;;;;;26.85;48.64;101237.53;5061611;28;45242;-75
2021/07/03 05:44:05;;;;;;;;;9.25;9.00;;;;;27.03;48.39;101265.47;5061490;28;45228;-75
2021/07/03 05:46:31;;;;;;;;;8.00;8.00;;;;;26.92;48.98;101248.22;5061369;28;45477;-77
2021/07/03 05:48:56;;;;;;;;;7.00;7.00;;;;;26.93;48.97;101257.88;5061473;28;46380;-77
2021/07/03 05:51:25;;;;;;;;;9.00;6.75;;;;;26.93;48.82;101248.00;5061550;28;45272;-77
2021/07/03 05:53:52;;;;;;;;;7.75;7.75;;;;;26.92;48.77;101250.88;5061801;28;45263;-76
2021/07/03 05:56:17;;;;;;;;;6.75;6.75;;;;;26.93;48.71;101257.88;5061312;28;45158;-76
2021/07/03 05:58:43;;;;;;;;;9.00;7.75;;;;;26.95;48.43;101253.16;5065885;28;45241;-76
2021/07/03 06:01:09;;;;;;;;;6.25;6.25;;;;;26.93;49.12;101249.88;5060130;28;45196;-76
2021/07/03 06:03:34;;;;;;;;;7.00;7.00;;;;;26.93;48.48;101241.84;5059962;28;45437;-76
2021/07/03 06:05:59;;;;;;;;;7.75;6.50;;;;;26.82;48.77;101230.75;5061209;28;45586;-72
2021/07/03 06:08:25;;;;;;;;;9.00;7.75;;;;;26.72;48.55;101231.16;5061296;28;45299;-74
2021/07/03 06:10:50;;;;;;;;;7.75;7.00;;;;;26.80;48.75;101240.00;5064925;28;45474;-74
2021/07/03 06:13:16;;;;;;;;;9.25;9.25;;;;;26.77;49.16;101232.38;5081398;28;45806;-75
2021/07/03 06:15:41;;;;;;;;;8.00;8.00;;;;;26.96;48.93;101274.28;5081334;28;45653;-75
2021/07/03 06:18:07;;;;;;;;;8.00;8.00;;;;;26.70;48.56;101235.84;5070932;28;45421;-77
2021/07/03 06:20:32;;;;;;;;;8.00;8.00;;;;;26.90;48.69;101256.44;5059703;28;45315;-71
2021/07/03 06:22:57;;;;;;;;;6.50;5.50;;;;;26.80;48.74;101232.81;5061362;28;45282;-72
2021/07/03 06:25:23;;;;;;;;;9.00;9.00;;;;;26.77;48.44;101238.56;5059757;28;45594;-72
2021/07/03 06:27:49;;;;;;;;;10.75;9.75;;;;;26.76;47.53;101236.91;5060716;28;46672;-72
2021/07/03 06:30:15;;;;;;;;;13.00;11.50;;;;;26.76;47.32;101252.09;5058243;28;45410;-73
2021/07/03 06:32:41;;;;;;;;;11.00;11.00;;;;;26.61;46.84;101272.59;5061061;28;45221;-73
2021/07/03 06:35:08;;;;;;;;;11.75;11.50;;;;;26.15;47.20;101228.72;5059488;28;45457;-73
2021/07/03 06:37:33;;;;;;;;;11.75;11.25;;;;;26.44;46.80;101292.66;5061001;28;48051;-73
2021/07/03 06:39:59;;;;;;;;;11.25;11.25;;;;;26.14;47.03;101251.88;5059476;28;45217;-73
2021/07/03 06:42:24;;;;;;;;;14.50;11.00;;;;;26.20;47.06;101278.78;5061066;28;45191;-73
2021/07/03 06:44:51;;;;;;;;;10.75;10.75;;;;;26.07;46.84;101261.69;5072641;28;45796;-73
2021/07/03 06:47:17;;;;;;;;;14.50;12.00;;;;;26.06;47.35;101268.88;5061018;28;45624;-73
2021/07/03 06:49:43;;;;;;;;;12.25;12.00;;;;;25.95;47.31;101270.25;5060653;28;45484;-73
2021/07/03 06:52:09;;;;;;;;;11.75;11.75;;;;;25.75;47.71;101264.81;5060816;28;45979;-73
2021/07/03 06:54:36;;;;;;;;;9.25;9.25;;;;;25.81;47.82;101287.19;5062381;28;45458;-77
2021/07/03 06:57:02;;;;;;;;;13.00;12.50;;;;;25.82;47.73;101280.81;5064303;28;46125;-78
2021/07/03 06:59:28;;;;;;;;;13.00;13.00;;;;;25.85;47.73;101278.59;5068479;27;45333;-77
2021/07/03 07:01:54;;;;;;;;;12.25;11.25;;;;;25.94;47.74;101292.59;5070529;28;45327;-72
2021/07/03 07:04:21;;;;;;;;;11.25;11.00;;;;;25.98;47.92;101290.34;5070995;28;45245;-75
2021/07/03 07:06:54;;;;;;;;;12.25;11.00;;;;;25.99;47.51;101289.34;5067759;28;47570;-75
2021/07/03 07:09:20;;;;;;;;;9.75;9.50;;;;;25.99;47.73;101285.84;5068723;28;45338;-75
2021/07/03 07:11:46;;;;;;;;;13.50;12.25;;;;;26.06;47.68;101282.19;5072249;27;45509;-75
2021/07/03 07:14:13;;;;;;;;;13.00;13.00;;;;;26.16;47.36;101281.00;5060898;28;45803;-75
2021/07/03 07:16:39;;;;;;;;;10.25;10.25;;;;;26.09;47.50;101264.16;5068421;27;45533;-74
2021/07/03 07:19:05;;;;;;;;;12.75;12.75;;;;;26.20;47.32;101287.59;5066019;28;45402;-75
2021/07/03 07:21:31;;;;;;;;;14.25;10.75;;;;;26.09;47.81;101261.50;5069639;28;45324;-76
2021/07/03 07:23:57;;;;;;;;;12.25;10.50;;;;;26.02;47.53;101266.81;5071295;28;45639;-76
2021/07/03 07:26:23;;;;;;;;;10.25;10.25;;;;;26.24;47.49;101304.03;5081974;27;47179;-75
2021/07/03 07:28:49;;;;;;;;;10.50;10.50;;;;;26.17;47.45;101298.66;5061534;28;45680;-74
2021/07/03 07:31:15;;;;;;;;;12.50;11.75;;;;;26.06;47.43;101279.53;5062193;28;45383;-74
2021/07/03 07:33:41;;;;;;;;;9.00;9.00;;;;;26.26;47.24;101313.47;5070167;27;45577;-74
2021/07/03 07:36:06;;;;;;;;;11.00;10.50;;;;;26.15;47.38;101301.50;5064981;28;46475;-75
2021/07/03 07:38:32;;;;;;;;;12.00;10.25;;;;;26.25;47.73;101311.84;5072204;28;45390;-75
2021/07/03 07:40:57;;;;;;;;;11.50;10.25;;;;;26.29;47.44;101297.06;5062511;28;45459;-72
2021/07/03 07:43:23;;;;;;;;;12.25;11.25;;;;;26.16;47.44;101281.84;5066673;27;45755;-70
2021/07/03 07:45:48;;;;;;;;;11.00;10.25;;;;;26.25;47.18;101300.34;5076564;28;45551;-73
2021/07/03 07:48:14;;;;;;;;;10.00;10.00;;;;;26.28;47.23;101297.28;5063411;28;45635;-73
2021/07/03 07:50:39;;;;;;;;;9.75;9.75;;;;;26.18;47.18;101269.13;5062372;28;45355;-71
2021/07/03 07:53:05;;;;;;;;;9.50;9.50;;;;;26.39;47.37;101291.38;5061489;28;45913;-69
2021/07/03 07:55:31;;;;;;;;;10.75;10.00;;;;;26.30;47.32;101273.91;5063982;28;48397;-70
2021/07/03 07:57:56;;;;;;;;;9.75;9.75;;;;;26.26;47.31;101273.47;5069360;28;45432;-71
2021/07/03 08:00:22;;;;;;;;;9.00;9.00;;;;;26.40;46.77;101279.69;5061130;28;45308;-71
2021/07/03 08:02:49;;;;;;;;;8.75;8.50;;;;;26.58;47.18;101310.34;5065486;28;45852;-70
2021/07/03 08:05:15;;;;;;;;;9.75;9.75;;;;;26.59;46.98;101312.00;5066059;28;45449;-71
2021/07/03 08:07:40;;;;;;;;;9.25;8.00;;;;;26.46;46.95;101294.09;5062093;28;45315;-71
2021/07/03 08:10:07;;;;;;;;;9.25;8.00;;;;;26.55;46.57;101304.59;5066334;28;45421;-71
2021/07/03 08:12:33;;;;;;;;;11.25;11.25;;;;;26.60;46.79;101307.47;5067597;27;45432;-74
2021/07/03 08:14:58;;;;;;;;;11.75;9.50;;;;;26.57;46.66;101294.56;5065996;28;45455;-71
2021/07/03 08:17:23;;;;;;;;;10.50;10.00;;;;;26.65;46.39;101304.22;5064736;27;45388;-71
2021/07/03 08:19:49;;;;;;;;;11.75;9.75;;;;;26.45;46.76;101268.44;5060191;28;45641;-72
2021/07/03 08:22:14;;;;;;;;;8.75;8.75;;;;;26.59;46.85;101279.16;5071905;28;45427;-71
2021/07/03 08:24:40;;;;;;;;;10.00;8.00;;;;;26.59;46.99;101279.16;5069526;28;45408;-70
2021/07/03 08:27:05;;;;;;;;;7.75;7.75;;;;;26.61;46.70;101285.94;5071701;28;45460;-72
2021/07/03 08:29:31;;;;;;;;;8.00;8.00;;;;;26.52;46.60;101263.94;5072704;27;45343;-70
2021/07/03 08:31:56;;;;;;;;;8.00;8.00;;;;;26.73;46.70;101296.84;5069452;28;45502;-73
2021/07/03 08:34:22;;;;;;;;;8.50;8.50;;;;;26.69;46.79;101274.25;5065185;28;46949;-69
2021/07/03 08:36:47;;;;;;;;;15.00;14.00;;;;;26.43;45.89;101238.44;5067612;28;45228;-70
2021/07/03 08:39:13;;;;;;;;;14.25;12.25;;;;;26.61;45.71;101299.28;5061731;28;45345;-70
2021/07/03 08:41:41;;;;;;;;;15.00;14.25;;;;;26.32;46.30;101271.84;5066923;28;45235;-71
2021/07/03 08:44:07;;;;;;;;;16.50;15.25;;;;;26.03;46.13;101258.59;5061802;28;45537;-70
2021/07/03 08:46:33;;;;;;;;;16.75;14.50;;;;;26.15;46.76;101292.72;5064001;28;45469;-71
2021/07/03 08:48:59;;;;;;;;;15.50;14.00;;;;;25.85;47.35;101272.44;5059303;28;45402;-72
2021/07/03 08:51:24;;;;;;;;;15.75;15.25;;;;;25.95;47.12;101294.25;5068423;28;45554;-72
2021/07/03 08:53:51;;;;;;;;;15.00;14.75;;;;;25.80;47.66;101269.53;5072438;28;45497;-74
2021/07/03 08:56:16;;;;;;;;;14.00;14.00;;;;;25.90;48.55;101298.50;5076124;28;45185;-75
2021/07/03 08:58:43;;;;;;;;;16.00;15.00;;;;;25.85;48.29;101302.59;5065022;27;45279;-74
2021/07/03 09:01:08;;;;;;;;;17.25;15.75;;;;;25.74;49.26;101281.81;5079893;28;45266;-74
2021/07/03 09:03:33;;;;;;;;;17.75;16.75;;;;;25.51;48.68;101253.53;5066346;28;45404;-73
2021/07/03 09:06:05;;;;;;;;;17.75;15.25;;;;;25.74;48.55;101300.44;5071974;28;45416;-73
2021/07/03 09:08:31;;;;;;;;;16.75;14.75;;;;;25.86;48.36;101327.41;5076462;28;45330;-74
2021/07/03 09:11:14;;;;;;;;;19.75;14.75;;;;;25.41;48.18;101259.22;5055649;28;45336;-74
2021/07/03 09:13:43;;;;;;;;;14.75;14.00;;;;;25.69;48.51;101310.84;5068847;28;46356;-72
2021/07/03 09:16:08;;;;;;;;;13.75;13.00;;;;;25.62;48.59;101303.66;5068009;28;45416;-71
2021/07/03 09:18:34;;;;;;;;;13.50;13.50;;;;;25.69;48.42;101316.16;5074293;28;45235;-72
2021/07/03 09:21:02;;;;;;;;;13.75;11.75;;;;;25.79;48.85;101310.56;5061962;28;45535;-72
2021/07/03 09:23:35;;;;;;;;;13.25;13.00;;;;;25.92;48.54;101307.13;5068390;27;45456;-72
2021/07/03 09:26:04;;;;;;;;;12.50;11.50;;;;;26.07;48.50;101329.16;5061185;27;45377;-73
2021/07/03 09:28:37;;;;;;;;;10.75;9.25;;;;;25.93;48.28;101293.63;5067474;27;45399;-73
2021/07/03 09:31:03;;;;;;;;;12.75;10.75;;;;;26.14;48.26;101312.38;5067764;28;45275;-73
2021/07/03 09:33:31;;;;;;;;;10.75;10.75;;;;;26.18;47.94;101311.78;5062051;28;47221;-73
2021/07/03 09:36:02;;;;;;;;;12.00;10.25;;;;;26.30;48.22;101321.91;5068849;28;45386;-74
2021/07/03 09:38:31;;;;;;;;;9.75;9.50;;;;;26.41;47.78;101332.00;5063332;28;45443;-74
2021/07/03 09:41:20;;;;;;;;;11.00;9.50;;;;;26.31;48.21;101309.41;5067712;28;45394;-72
2021/07/03 09:43:48;;;;;;;;;10.00;10.00;;;;;26.51;47.91;101342.34;5071072;28;45466;-73
2021/07/03 09:46:25;;;;;;;;;12.00;10.00;;;;;26.54;48.01;101345.66;5068914;28;45455;-72
2021/07/03 09:48:53;;;;;;;;;10.25;10.25;;;;;26.36;47.87;101301.63;5070657;28;45370;-73
2021/07/03 09:51:27;;;;;;;;;9.25;9.00;;;;;26.35;47.55;101287.47;5062262;28;45283;-72
2021/07/03 09:53:55;;;;;;;;;12.00;11.00;;;;;26.29;47.95;101277.56;5069911;28;45488;-73
2021/07/03 09:56:21;;;;;;;;;10.00;10.00;;;;;26.64;47.92;101330.09;5064373;28;45236;-74
2021/07/03 09:58:47;;;;;;;;;9.50;9.50;;;;;26.61;47.73;101317.97;5069686;28;45412;-73
2021/07/03 10:01:13;;;;;;;;;10.00;8.00;;;;;26.58;47.59;101314.88;5072988;28;45378;-73
2021/07/03 10:03:39;;;;;;;;;9.00;9.00;;;;;26.73;47.86;101349.41;5064919;28;45319;-73
2021/07/03 10:06:07;;;;;;;;;11.75;10.00;;;;;26.69;47.90;101327.63;5070518;28;45505;-72
2021/07/03 10:08:39;;;;;;;;;7.00;7.00;;;;;26.71;47.34;101333.59;5076806;28;45406;-72
2021/07/03 10:11:06;;;;;;;;;8.50;8.50;;;;;26.63;48.07;101323.09;5068376;28;45512;-72
2021/07/03 10:13:34;;;;;;;;;7.00;7.00;;;;;26.72;47.85;101324.56;5075368;28;47722;-72
2021/07/03 10:16:05;;;;;;;;;10.00;9.75;;;;;26.68;47.51;101323.31;5066558;28;45367;-72
2021/07/03 10:18:32;;;;;;;;;11.00;10.00;;;;;26.76;47.83;101329.50;5063786;28;45520;-73
2021/07/03 10:21:20;;;;;;;;;8.00;8.00;;;;;26.83;47.86;101336.50;5065398;28;45496;-74
2021/07/03 10:23:46;;;;;;;;;9.00;8.00;;;;;26.88;47.70;101330.53;5070998;28;46117;-75
2021/07/03 10:26:12;;;;;;;;;10.25;8.75;;;;;26.92;47.61;101338.97;5089402;27;45455;-71
2021/07/03 10:28:42;;;;;;;;;8.00;8.00;;;;;26.70;48.04;101304.44;5072176;28;45491;-71
2021/07/03 10:31:14;;;;;;;;;9.00;9.00;;;;;26.83;47.64;101312.47;5074460;28;45263;-73
2021/07/03 10:33:50;;;;;;;;;10.00;9.00;;;;;26.99;47.41;101328.31;5061488;28;46311;-74
2021/07/03 10:36:30;;;;;;;;;9.00;9.00;;;;;26.93;47.40;101320.09;5072523;28;45419;-72
2021/07/03 10:38:58;;;;;;;;;8.25;7.75;;;;;26.99;47.57;101329.13;5066002;28;45583;-72
2021/07/03 10:41:26;;;;;;;;;7.75;7.75;;;;;27.05;47.59;101341.69;5068923;28;45447;-73
2021/07/03 10:44:04;;;;;;;;;10.25;10.25;;;;;27.11;47.76;101333.88;5075943;28;47025;-73
2021/07/03 10:46:41;;;;;;;;;7.00;7.00;;;;;27.11;47.38;101337.38;5066100;28;45732;-72
2021/07/03 10:49:16;;;;;;;;;8.25;8.00;;;;;27.14;47.32;101341.53;5066284;28;45338;-72
2021/07/03 10:51:48;;;;;;;;;8.75;8.75;;;;;27.05;47.62;101323.00;5067659;28;45508;-73
2021/07/03 10:54:28;;;;;;;;;6.75;6.75;;;;;27.09;47.38;101323.41;5069766;28;45694;-73
2021/07/03 10:57:04;;;;;;;;;8.50;8.25;;;;;27.20;47.57;101330.03;5061665;28;45329;-73
2021/07/03 10:59:34;;;;;;;;;9.50;9.00;;;;;27.13;47.80;101324.69;5064016;27;45348;-72
2021/07/03 11:02:29;;;;;;;;;7.75;7.75;;;;;27.24;47.65;101341.97;5062771;28;45303;-72
2021/07/03 11:04:55;;;;;;;;;8.00;6.25;;;;;27.20;47.54;101319.34;5064470;28;45440;-72
2021/07/03 11:07:32;;;;;;;;;11.25;8.00;;;;;26.99;47.83;101285.59;5069279;28;45572;-73
2021/07/03 11:10:10;;;;;;;;;8.50;7.75;;;;;27.17;47.81;101314.38;5063690;28;45390;-74
2021/07/03 11:12:56;;;;;;;;;9.00;8.75;;;;;27.29;47.67;101336.00;5064529;28;45565;-71
2021/07/03 11:15:27;;;;;;;;;8.50;7.75;;;;;27.15;47.67;101316.44;5058523;28;47248;-71
2021/07/03 11:17:55;;;;;;;;;8.00;8.00;;;;;27.27;47.49;101335.38;5070243;28;45303;-71
2021/07/03 11:20:30;;;;;;;;;7.25;7.25;;;;;27.07;47.49;101296.91;5061992;28;45295;-72